Clinton, OK

2:39 PM CST on February 27, 2017 (GMT -0600)
Clinton Municipal

Weather History for KCLK - November, 2012

Change the Weather History Date:

Tuesday, November 6, 2012

  Actual Average (KCSM) Record (KCSM)
Temperature  
Mean Temperature 53 °F -  
Max Temperature 73 °F 59 °F 75 °F (1999)
Min Temperature 33 °F 41 °F 27 °F (2003)
Degree Days  
Heating Degree Days 12    
Growing Degree Days 3 (Base 50)    
Moisture  
Dew Point 31 °F    
Average Humidity 50    
Maximum Humidity 87    
Minimum Humidity 20    
Precipitation  
Precipitation 0.00 in - - ()
Sea Level Pressure  
Sea Level Pressure 30.12 in    
Wind  
Wind Speed 4 mph (NNE)    
Max Wind Speed 17 mph    
Max Gust Speed 22 mph    
Visibility 10 miles    
Events      
Averages and records for this station are not official NWS values.
T = Trace of Precipitation, MM = Missing Value Source: NWS Daily Summary

Daily Weather History Graph

Daily Weather History Graph

Search for Another Location

Airport or City:

Trip Planner

Search our weather history database for the weather conditions in past years. The results will help you decide how hot, cold, wet, or windy it might be!

Date:

Astronomy

Nov. 06, 2012 Rise Set
Actual Time 7:02 AM CST 5:35 PM CST
Civil Twilight 6:36 AM CST 6:02 PM CST
Nautical Twilight 6:05 AM CST 6:32 PM CST
Astronomical Twilight 5:35 AM CST 7:02 PM CST
Moon No Moon Rise 12:57 PM CST (11/6)
Length of Visible Light 11h 25m
Length of Day
10h 32m
Waning Gibbous, 53% of the Moon is Illuminated
Nov 6
Waning Gibbous
Nov 6
Last Quarter
Nov 13
New
Nov 20
First Quarter
Nov 28
Full

Hourly Weather History & Observations

Time (CST) Temp. Windchill Dew Point Humidity Pressure Visibility Wind Dir Wind Speed Gust Speed Precip Events Conditions
12:15 AM 39.2 °F - 30.2 °F 70% 30.12 in 10.0 mi Calm Calm - N/A   Clear
12:35 AM 41.0 °F - 32.0 °F 70% 30.12 in 10.0 mi Calm Calm - N/A   Clear
12:55 AM 41.0 °F - 30.2 °F 65% 30.12 in 10.0 mi Calm Calm - N/A   Clear
1:15 AM 37.4 °F - 30.2 °F 75% 30.12 in 10.0 mi Calm Calm - N/A   Clear
1:35 AM 37.4 °F - 30.2 °F 75% 30.12 in 7.0 mi Calm Calm - N/A   Clear
1:55 AM 35.6 °F - 30.2 °F 81% 30.13 in 10.0 mi Calm Calm - N/A   Clear
2:35 AM 35.6 °F - 30.2 °F 81% 30.14 in 10.0 mi Calm Calm - N/A   Clear
2:55 AM 35.6 °F - 30.2 °F 81% 30.14 in 10.0 mi Calm Calm - N/A   Clear
3:35 AM 35.6 °F - 28.4 °F 75% 30.14 in 10.0 mi Calm Calm - N/A   Clear
3:55 AM 35.6 °F - 30.2 °F 81% 30.12 in 10.0 mi Calm Calm - N/A   Clear
4:15 AM 35.6 °F - 30.2 °F 81% 30.12 in 10.0 mi Calm Calm - N/A   Clear
4:35 AM 33.8 °F - 28.4 °F 81% 30.12 in 10.0 mi Calm Calm - N/A   Clear
5:15 AM 35.6 °F - 30.2 °F 81% 30.11 in 10.0 mi Calm Calm - N/A   Clear
5:35 AM 35.6 °F - 30.2 °F 81% 30.11 in 10.0 mi Calm Calm - N/A   Clear
6:15 AM 33.8 °F - 30.2 °F 87% 30.11 in 10.0 mi Calm Calm - N/A   Clear
6:35 AM 35.6 °F - 30.2 °F 81% 30.12 in 10.0 mi Calm Calm - N/A   Clear
6:55 AM 35.6 °F 32.8 °F 30.2 °F 81% 30.11 in 10.0 mi South 3.5 mph - N/A   Clear
7:15 AM 33.8 °F - 30.2 °F 87% 30.11 in 10.0 mi Calm Calm - N/A   Clear
7:35 AM 35.6 °F - 30.2 °F 81% 30.12 in 10.0 mi Calm Calm - N/A   Clear
8:15 AM 39.2 °F 37.0 °F 32.0 °F 75% 30.12 in 10.0 mi South 3.5 mph - N/A   Clear
8:35 AM 42.8 °F 41.1 °F 32.0 °F 66% 30.13 in 10.0 mi SSW 3.5 mph - N/A   Clear
8:55 AM 46.4 °F 43.5 °F 32.0 °F 57% 30.13 in 10.0 mi SSW 5.8 mph - N/A   Clear
9:15 AM 48.2 °F - 32.0 °F 54% 30.14 in 10.0 mi WSW 3.5 mph - N/A   Clear
9:35 AM 50.0 °F - 32.0 °F 50% 30.12 in 10.0 mi SW 4.6 mph - N/A   Clear
9:55 AM 53.6 °F - 33.8 °F 47% 30.13 in 10.0 mi WSW 6.9 mph - N/A   Clear
10:15 AM 57.2 °F - 32.0 °F 38% 30.13 in 10.0 mi West 10.4 mph - N/A   Clear
10:35 AM 60.8 °F - 32.0 °F 34% 30.12 in 10.0 mi West 10.4 mph - N/A   Clear
10:55 AM 62.6 °F - 30.2 °F 30% 30.12 in 10.0 mi WNW 8.1 mph - N/A   Clear
11:15 AM 64.4 °F - 30.2 °F 28% 30.12 in 10.0 mi NW 9.2 mph - N/A   Clear
11:35 AM 64.4 °F - 30.2 °F 28% 30.12 in 10.0 mi WNW 8.1 mph - N/A   Clear
11:55 AM 68.0 °F - 30.2 °F 24% 30.11 in 10.0 mi WNW 10.4 mph - N/A   Clear
12:15 PM 71.6 °F - 30.2 °F 22% 30.11 in 10.0 mi NNW 11.5 mph - N/A   Clear
12:35 PM 73.4 °F - 30.2 °F 20% 30.10 in 10.0 mi NNW 16.1 mph - N/A   Clear
1:15 PM 73.4 °F - 30.2 °F 20% 30.08 in 10.0 mi North 16.1 mph 21.9 mph N/A   Clear
1:35 PM 73.4 °F - 30.2 °F 20% 30.07 in 10.0 mi NNE 16.1 mph 19.6 mph N/A   Clear
1:55 PM 73.4 °F - 30.2 °F 20% 30.07 in 10.0 mi NNE 17.3 mph - N/A   Clear
2:15 PM 73.4 °F - 30.2 °F 20% 30.08 in 10.0 mi NNE 15.0 mph 18.4 mph N/A   Clear
2:35 PM 73.4 °F - 30.2 °F 20% 30.08 in 10.0 mi NNE 15.0 mph 19.6 mph N/A   Clear
2:55 PM 73.4 °F - 30.2 °F 20% 30.08 in 10.0 mi NNE 11.5 mph - N/A   Clear
3:15 PM 73.4 °F - 30.2 °F 20% 30.09 in 10.0 mi NNE 12.7 mph - N/A   Clear
3:35 PM 73.4 °F - 30.2 °F 20% 30.09 in 10.0 mi North 13.8 mph - N/A   Clear
4:15 PM 71.6 °F - 30.2 °F 22% 30.09 in 10.0 mi NNE 12.7 mph - N/A   Clear
4:35 PM 71.6 °F - 30.2 °F 22% 30.09 in 10.0 mi NE 8.1 mph - N/A   Clear
4:55 PM 69.8 °F - 30.2 °F 23% 30.09 in 10.0 mi NNE 9.2 mph - N/A   Clear
5:15 PM 68.0 °F - 32.0 °F 26% 30.10 in 10.0 mi NE 6.9 mph - N/A   Clear
5:35 PM 64.4 °F - 32.0 °F 30% 30.11 in 7.0 mi ENE 6.9 mph - N/A   Clear
5:55 PM 62.6 °F - 32.0 °F 32% 30.12 in 10.0 mi ENE 5.8 mph - N/A   Clear
6:15 PM 62.6 °F - 32.0 °F 32% 30.12 in 10.0 mi ENE 4.6 mph - N/A   Clear
6:35 PM 60.8 °F - 32.0 °F 34% 30.13 in 10.0 mi ENE 5.8 mph - N/A   Clear
6:55 PM 57.2 °F - 32.0 °F 38% 30.14 in 10.0 mi ENE 6.9 mph - N/A   Clear
7:15 PM 55.4 °F - 32.0 °F 41% 30.14 in 10.0 mi NE 9.2 mph - N/A   Clear
7:35 PM 53.6 °F - 32.0 °F 44% 30.15 in 10.0 mi ENE 6.9 mph - N/A   Clear
7:55 PM 53.6 °F - 32.0 °F 44% 30.15 in 10.0 mi ENE 6.9 mph - N/A   Clear
8:15 PM 53.6 °F - 32.0 °F 44% 30.15 in 10.0 mi ENE 8.1 mph - N/A   Clear
8:35 PM 53.6 °F - 32.0 °F 44% 30.15 in 10.0 mi ENE 6.9 mph - N/A   Clear
8:55 PM 53.6 °F - 32.0 °F 44% 30.16 in 10.0 mi ENE 6.9 mph - N/A   Clear
9:15 PM 50.0 °F - 32.0 °F 50% 30.16 in 10.0 mi Calm Calm - N/A   Clear
9:35 PM 48.2 °F - 32.0 °F 54% 30.16 in 10.0 mi Calm Calm - N/A   Clear
9:55 PM 48.2 °F - 32.0 °F 54% 30.17 in 10.0 mi Calm Calm - N/A   Clear
10:15 PM 46.4 °F - 32.0 °F 57% 30.17 in 10.0 mi Calm Calm - N/A   Clear
10:35 PM 46.4 °F 45.2 °F 32.0 °F 57% 30.17 in 10.0 mi NNW 3.5 mph - N/A   Clear
10:55 PM 46.4 °F 44.3 °F 32.0 °F 57% 30.17 in 10.0 mi NNW 4.6 mph - N/A   Clear
11:15 PM 44.6 °F 41.4 °F 32.0 °F 61% 30.17 in 10.0 mi North 5.8 mph - N/A   Clear
11:35 PM 44.6 °F 42.2 °F 32.0 °F 61% 30.17 in 10.0 mi NNW 4.6 mph - N/A   Clear
11:55 PM 44.6 °F 43.1 °F 32.0 °F 61% 30.17 in 10.0 mi North 3.5 mph - N/A   Clear